sensor_id;sensor_type;location;lat;lon;timestamp;pressure;altitude;pressure_sealevel;temperature;humidity
46448;BME280;32145;50.390;30.778;2023-07-08T00:00:22;99982.06;;;19.49;78.42
46448;BME280;32145;50.390;30.778;2023-07-08T00:03:19;99970.00;;;19.44;78.72
46448;BME280;32145;50.390;30.778;2023-07-08T00:06:17;99974.38;;;19.45;78.42
46448;BME280;32145;50.390;30.778;2023-07-08T00:09:12;99970.56;;;19.41;78.37
46448;BME280;32145;50.390;30.778;2023-07-08T00:12:11;99966.19;;;19.40;78.77
46448;BME280;32145;50.390;30.778;2023-07-08T00:15:06;99963.19;;;19.37;78.91
46448;BME280;32145;50.390;30.778;2023-07-08T00:18:00;99957.13;;;19.40;78.78
46448;BME280;32145;50.390;30.778;2023-07-08T00:20:55;99946.97;;;19.40;78.51
46448;BME280;32145;50.390;30.778;2023-07-08T00:23:50;99943.66;;;19.38;78.67
46448;BME280;32145;50.390;30.778;2023-07-08T00:26:44;99942.84;;;19.38;78.74
46448;BME280;32145;50.390;30.778;2023-07-08T00:29:40;99948.34;;;19.38;78.83
46448;BME280;32145;50.390;30.778;2023-07-08T00:32:34;99943.66;;;19.38;78.88
46448;BME280;32145;50.390;30.778;2023-07-08T00:35:31;99953.84;;;19.38;78.79
46448;BME280;32145;50.390;30.778;2023-07-08T00:38:27;99953.59;;;19.34;78.77
46448;BME280;32145;50.390;30.778;2023-07-08T00:41:27;99948.09;;;19.34;78.55
46448;BME280;32145;50.390;30.778;2023-07-08T00:44:22;99950.34;;;19.32;78.56
46448;BME280;32145;50.390;30.778;2023-07-08T00:47:20;99950.34;;;19.32;78.51
46448;BME280;32145;50.390;30.778;2023-07-08T00:50:18;99948.47;;;19.27;78.34
46448;BME280;32145;50.390;30.778;2023-07-08T00:53:23;99958.03;;;19.30;78.54
46448;BME280;32145;50.390;30.778;2023-07-08T00:56:22;99953.13;;;19.27;78.28
46448;BME280;32145;50.390;30.778;2023-07-08T00:59:24;99958.63;;;19.27;78.51
46448;BME280;32145;50.390;30.778;2023-07-08T01:02:24;99957.28;;;19.24;78.67
46448;BME280;32145;50.390;30.778;2023-07-08T01:05:22;99955.38;;;19.25;78.63
46448;BME280;32145;50.390;30.778;2023-07-08T01:08:18;99952.06;;;19.23;78.70
46448;BME280;32145;50.390;30.778;2023-07-08T01:11:14;99941.91;;;19.23;78.57
46448;BME280;32145;50.390;30.778;2023-07-08T01:14:12;99941.06;;;19.23;78.73
46448;BME280;32145;50.390;30.778;2023-07-08T01:17:08;99934.78;;;19.22;78.56
46448;BME280;32145;50.390;30.778;2023-07-08T01:20:05;99940.28;;;19.22;78.44
46448;BME280;32145;50.390;30.778;2023-07-08T01:23:01;99932.31;;;19.21;78.69
46448;BME280;32145;50.390;30.778;2023-07-08T01:25:55;99941.06;;;19.23;78.33
46448;BME280;32145;50.390;30.778;2023-07-08T01:28:49;99932.31;;;19.21;78.13
46448;BME280;32145;50.390;30.778;2023-07-08T01:31:44;99930.16;;;19.17;78.02
46448;BME280;32145;50.390;30.778;2023-07-08T01:34:38;99929.59;;;19.15;78.30
46448;BME280;32145;50.390;30.778;2023-07-08T01:37:34;99939.78;;;19.15;78.21
46448;BME280;32145;50.390;30.778;2023-07-08T01:40:32;99940.38;;;19.12;78.31
46448;BME280;32145;50.390;30.778;2023-07-08T01:43:26;99932.97;;;19.07;78.24
46448;BME280;32145;50.390;30.778;2023-07-08T01:46:23;99942.34;;;19.06;78.20
46448;BME280;32145;50.390;30.778;2023-07-08T01:49:17;99943.16;;;19.06;78.22
46448;BME280;32145;50.390;30.778;2023-07-08T01:52:15;99952.47;;;19.05;78.30
46448;BME280;32145;50.390;30.778;2023-07-08T01:55:11;99949.22;;;19.03;78.20
46448;BME280;32145;50.390;30.778;2023-07-08T01:58:06;99963.22;;;19.02;78.37
46448;BME280;32145;50.390;30.778;2023-07-08T02:01:01;99965.16;;;19.01;78.46
46448;BME280;32145;50.390;30.778;2023-07-08T02:03:56;99962.41;;;19.01;78.30
46448;BME280;32145;50.390;30.778;2023-07-08T02:06:54;99960.47;;;19.02;78.19
46448;BME280;32145;50.390;30.778;2023-07-08T02:09:48;99965.44;;;19.00;78.03
46448;BME280;32145;50.390;30.778;2023-07-08T02:12:45;99965.75;;;18.98;77.93
46448;BME280;32145;50.390;30.778;2023-07-08T02:15:42;99965.44;;;19.00;77.92
46448;BME280;32145;50.390;30.778;2023-07-08T02:18:37;99965.16;;;19.01;77.99
46448;BME280;32145;50.390;30.778;2023-07-08T02:21:31;99968.19;;;19.00;77.92
46448;BME280;32145;50.390;30.778;2023-07-08T02:24:25;99967.66;;;18.98;77.93
46448;BME280;32145;50.390;30.778;2023-07-08T02:27:20;99962.72;;;18.94;77.84
46448;BME280;32145;50.390;30.778;2023-07-08T02:30:14;99958.34;;;18.93;77.72
46448;BME280;32145;50.390;30.778;2023-07-08T02:33:10;99960.28;;;18.93;77.78
46448;BME280;32145;50.390;30.778;2023-07-08T02:36:04;99959.47;;;18.92;77.71
46448;BME280;32145;50.390;30.778;2023-07-08T02:38:58;99959.16;;;18.94;77.31
46448;BME280;32145;50.390;30.778;2023-07-08T02:41:54;99955.06;;;18.91;77.44
46448;BME280;32145;50.390;30.778;2023-07-08T02:44:51;99955.66;;;18.88;77.71
46448;BME280;32145;50.390;30.778;2023-07-08T02:47:45;99952.91;;;18.88;77.60
46448;BME280;32145;50.390;30.778;2023-07-08T02:50:41;99955.94;;;18.87;77.73
46448;BME280;32145;50.390;30.778;2023-07-08T02:53:37;99938.63;;;18.86;77.45
46448;BME280;32145;50.390;30.778;2023-07-08T02:56:33;99942.50;;;18.85;77.76
46448;BME280;32145;50.390;30.778;2023-07-08T02:59:30;99937.00;;;18.85;77.80
46448;BME280;32145;50.390;30.778;2023-07-08T03:02:26;99933.72;;;18.83;77.99
46448;BME280;32145;50.390;30.778;2023-07-08T03:05:22;99937.00;;;18.85;77.32
46448;BME280;32145;50.390;30.778;2023-07-08T03:08:20;99934.25;;;18.85;77.29
46448;BME280;32145;50.390;30.778;2023-07-08T03:11:16;99934.53;;;18.84;77.33
46448;BME280;32145;50.390;30.778;2023-07-08T03:14:13;99926.59;;;18.82;77.35
46448;BME280;32145;50.390;30.778;2023-07-08T03:17:09;99927.16;;;18.79;77.41
46448;BME280;32145;50.390;30.778;2023-07-08T03:20:06;99932.66;;;18.79;77.64
46448;BME280;32145;50.390;30.778;2023-07-08T03:23:03;99930.75;;;18.79;77.53
46448;BME280;32145;50.390;30.778;2023-07-08T03:26:00;99920.88;;;18.78;77.57
46448;BME280;32145;50.390;30.778;2023-07-08T03:28:56;99915.94;;;18.75;77.43
46448;BME280;32145;50.390;30.778;2023-07-08T03:31:53;99907.72;;;18.75;77.17
46448;BME280;32145;50.390;30.778;2023-07-08T03:34:49;99917.34;;;18.73;77.49
46448;BME280;32145;50.390;30.778;2023-07-08T03:37:45;99904.19;;;18.70;77.70
46448;BME280;32145;50.390;30.778;2023-07-08T03:40:42;99891.53;;;18.74;77.65
46448;BME280;32145;50.390;30.778;2023-07-08T03:43:39;99892.56;;;18.78;77.40
46448;BME280;32145;50.390;30.778;2023-07-08T03:46:36;99884.84;;;18.80;76.83
46448;BME280;32145;50.390;30.778;2023-07-08T03:49:32;99881.03;;;18.76;77.15
46448;BME280;32145;50.390;30.778;2023-07-08T03:52:26;99879.97;;;18.77;77.33
46448;BME280;32145;50.390;30.778;2023-07-08T03:55:21;99881.59;;;18.78;77.64
46448;BME280;32145;50.390;30.778;2023-07-08T03:58:17;99876.09;;;18.78;77.58
46448;BME280;32145;50.390;30.778;2023-07-08T04:01:16;99865.06;;;18.83;77.51
46448;BME280;32145;50.390;30.778;2023-07-08T04:04:14;99862.84;;;18.85;77.12
46448;BME280;32145;50.390;30.778;2023-07-08T04:07:11;99849.13;;;18.85;77.00
46448;BME280;32145;50.390;30.778;2023-07-08T04:10:08;99849.63;;;18.87;76.97
46448;BME280;32145;50.390;30.778;2023-07-08T04:13:04;99853.44;;;18.91;77.03
46448;BME280;32145;50.390;30.778;2023-07-08T04:16:02;99853.44;;;18.91;76.52
46448;BME280;32145;50.390;30.778;2023-07-08T04:19:01;99850.47;;;18.88;76.67
46448;BME280;32145;50.390;30.778;2023-07-08T04:21:57;99852.16;;;18.84;77.04
46448;BME280;32145;50.390;30.778;2023-07-08T04:24:54;99865.59;;;18.85;76.92
46448;BME280;32145;50.390;30.778;2023-07-08T04:27:50;99852.97;;;18.84;77.00
46448;BME280;32145;50.390;30.778;2023-07-08T04:30:47;99846.66;;;18.84;76.90
46448;BME280;32145;50.390;30.778;2023-07-08T04:33:43;99840.91;;;18.80;76.91
46448;BME280;32145;50.390;30.778;2023-07-08T04:36:41;99845.31;;;18.81;76.78
46448;BME280;32145;50.390;30.778;2023-07-08T04:39:38;99842.28;;;18.83;76.81
46448;BME280;32145;50.390;30.778;2023-07-08T04:42:34;99851.91;;;18.80;76.81
46448;BME280;32145;50.390;30.778;2023-07-08T04:45:30;99829.13;;;18.79;76.73
46448;BME280;32145;50.390;30.778;2023-07-08T04:48:27;99821.69;;;18.80;76.61
46448;BME280;32145;50.390;30.778;2023-07-08T04:51:23;99819.78;;;18.80;76.60
46448;BME280;32145;50.390;30.778;2023-07-08T04:54:19;99813.22;;;18.76;76.60
46448;BME280;32145;50.390;30.778;2023-07-08T04:57:13;99809.94;;;18.74;76.72
46448;BME280;32145;50.390;30.778;2023-07-08T05:00:13;99798.16;;;18.74;76.86
46448;BME280;32145;50.390;30.778;2023-07-08T05:03:08;99797.31;;;18.73;77.01
46448;BME280;32145;50.390;30.778;2023-07-08T05:06:02;99803.09;;;18.72;77.06
46448;BME280;32145;50.390;30.778;2023-07-08T05:08:58;99810.84;;;18.70;77.13
46448;BME280;32145;50.390;30.778;2023-07-08T05:11:53;99809.22;;;18.63;77.53
46448;BME280;32145;50.390;30.778;2023-07-08T05:14:48;99812.31;;;18.57;77.99
46448;BME280;32145;50.390;30.778;2023-07-08T05:17:42;99805.19;;;18.55;77.95
46448;BME280;32145;50.390;30.778;2023-07-08T05:20:37;99808.22;;;18.54;77.95
46448;BME280;32145;50.390;30.778;2023-07-08T05:23:31;99821.41;;;18.52;78.45
46448;BME280;32145;50.390;30.778;2023-07-08T05:26:28;99815.91;;;18.57;78.17
46448;BME280;32145;50.390;30.778;2023-07-08T05:29:25;99801.63;;;18.55;78.35
46448;BME280;32145;50.390;30.778;2023-07-08T05:32:21;99807.66;;;18.57;78.50
46448;BME280;32145;50.390;30.778;2023-07-08T05:35:18;99816.13;;;18.61;78.32
46448;BME280;32145;50.390;30.778;2023-07-08T05:38:14;99808.44;;;18.63;77.97
46448;BME280;32145;50.390;30.778;2023-07-08T05:41:08;99824.06;;;18.62;78.05
46448;BME280;32145;50.390;30.778;2023-07-08T05:44:03;99838.66;;;18.58;77.85
46448;BME280;32145;50.390;30.778;2023-07-08T05:46:59;99844.97;;;18.58;77.99
46448;BME280;32145;50.390;30.778;2023-07-08T05:49:53;99858.16;;;18.56;77.80
46448;BME280;32145;50.390;30.778;2023-07-08T05:52:47;99855.41;;;18.56;77.97
46448;BME280;32145;50.390;30.778;2023-07-08T05:55:41;99872.44;;;18.58;77.78
46448;BME280;32145;50.390;30.778;2023-07-08T05:58:38;99863.63;;;18.61;77.92
46448;BME280;32145;50.390;30.778;2023-07-08T06:01:35;99877.31;;;18.66;77.88
46448;BME280;32145;50.390;30.778;2023-07-08T06:04:31;99884.97;;;18.70;77.82
46448;BME280;32145;50.390;30.778;2023-07-08T06:07:25;99881.94;;;18.71;77.66
46448;BME280;32145;50.390;30.778;2023-07-08T06:10:20;99887.13;;;18.73;77.18
46448;BME280;32145;50.390;30.778;2023-07-08T06:13:14;99895.41;;;18.67;77.34
46448;BME280;32145;50.390;30.778;2023-07-08T06:16:08;99899.50;;;18.70;76.98
46448;BME280;32145;50.390;30.778;2023-07-08T06:19:02;99900.88;;;18.73;77.32
46448;BME280;32145;50.390;30.778;2023-07-08T06:22:00;99913.72;;;18.77;77.32
46448;BME280;32145;50.390;30.778;2023-07-08T06:24:56;99916.72;;;18.81;76.96
46448;BME280;32145;50.390;30.778;2023-07-08T06:27:53;99921.09;;;18.82;76.81
46448;BME280;32145;50.390;30.778;2023-07-08T06:30:49;99904.63;;;18.82;76.81
46448;BME280;32145;50.390;30.778;2023-07-08T06:33:46;99906.25;;;18.83;76.55
46448;BME280;32145;50.390;30.778;2023-07-08T06:36:42;99905.13;;;18.84;76.89
46448;BME280;32145;50.390;30.778;2023-07-08T06:39:38;99917.72;;;18.90;76.77
46448;BME280;32145;50.390;30.778;2023-07-08T06:42:32;99908.63;;;18.95;76.52
46448;BME280;32145;50.390;30.778;2023-07-08T06:45:26;99921.47;;;19.00;76.62
46448;BME280;32145;50.390;30.778;2023-07-08T06:48:21;99899.50;;;19.00;76.58
46448;BME280;32145;50.390;30.778;2023-07-08T06:51:15;99911.53;;;19.04;76.71
46448;BME280;32145;50.390;30.778;2023-07-08T06:54:11;99912.63;;;19.08;76.44
46448;BME280;32145;50.390;30.778;2023-07-08T06:57:09;99911.25;;;19.11;76.15
46448;BME280;32145;50.390;30.778;2023-07-08T07:00:07;99922.47;;;19.14;76.13
46448;BME280;32145;50.390;30.778;2023-07-08T07:03:03;99905.94;;;19.19;76.33
46448;BME280;32145;50.390;30.778;2023-07-08T07:05:59;99915.84;;;19.21;76.04
46448;BME280;32145;50.390;30.778;2023-07-08T07:08:56;99915.28;;;19.18;76.12
46448;BME280;32145;50.390;30.778;2023-07-08T07:11:52;99898.28;;;19.16;76.26
46448;BME280;32145;50.390;30.778;2023-07-08T07:14:50;99901.56;;;19.18;76.47
46448;BME280;32145;50.390;30.778;2023-07-08T07:17:46;99899.91;;;19.17;76.14
46448;BME280;32145;50.390;30.778;2023-07-08T07:20:48;99894.94;;;19.19;76.23
46448;BME280;32145;50.390;30.778;2023-07-08T07:23:45;99878.50;;;19.14;76.12
46448;BME280;32145;50.390;30.778;2023-07-08T07:26:39;99880.69;;;19.17;76.50
46448;BME280;32145;50.390;30.778;2023-07-08T07:29:40;99882.59;;;19.17;76.26
46448;BME280;32145;50.390;30.778;2023-07-08T07:32:35;99876.34;;;19.11;76.38
46448;BME280;32145;50.390;30.778;2023-07-08T07:35:29;99877.47;;;19.10;75.79
46448;BME280;32145;50.390;30.778;2023-07-08T07:38:24;99881.63;;;19.08;75.84
46448;BME280;32145;50.390;30.778;2023-07-08T07:41:21;99888.78;;;19.03;75.89
46448;BME280;32145;50.390;30.778;2023-07-08T07:44:17;99882.72;;;19.06;76.01
46448;BME280;32145;50.390;30.778;2023-07-08T07:47:08;99880.22;;;19.10;76.02
46448;BME280;32145;50.390;30.778;2023-07-08T07:50:06;99885.16;;;19.08;75.87
46448;BME280;32145;50.390;30.778;2023-07-08T07:53:02;99872.00;;;19.05;75.79
46448;BME280;32145;50.390;30.778;2023-07-08T07:55:59;99886.88;;;18.99;75.72
46448;BME280;32145;50.390;30.778;2023-07-08T07:58:56;99878.13;;;18.97;76.07
46448;BME280;32145;50.390;30.778;2023-07-08T08:01:52;99874.78;;;19.00;75.95
46448;BME280;32145;50.390;30.778;2023-07-08T08:04:49;99888.78;;;19.03;75.68
46448;BME280;32145;50.390;30.778;2023-07-08T08:07:47;99880.25;;;19.05;75.52
46448;BME280;32145;50.390;30.778;2023-07-08T08:10:43;99876.94;;;19.03;75.49
46448;BME280;32145;50.390;30.778;2023-07-08T08:13:40;99885.19;;;19.03;75.35
46448;BME280;32145;50.390;30.778;2023-07-08T08:16:36;99896.16;;;19.08;75.41
46448;BME280;32145;50.390;30.778;2023-07-08T08:19:32;99901.91;;;19.12;75.13
46448;BME280;32145;50.390;30.778;2023-07-08T08:22:28;99911.50;;;19.14;75.11
46448;BME280;32145;50.390;30.778;2023-07-08T08:25:26;99926.84;;;19.15;75.36
46448;BME280;32145;50.390;30.778;2023-07-08T08:28:20;99924.94;;;19.16;74.83
46448;BME280;32145;50.390;30.778;2023-07-08T08:31:15;99935.94;;;19.16;74.98
46448;BME280;32145;50.390;30.778;2023-07-08T08:34:09;99934.53;;;19.18;74.94
46448;BME280;32145;50.390;30.778;2023-07-08T08:37:04;99943.88;;;19.17;74.36
46448;BME280;32145;50.390;30.778;2023-07-08T08:40:00;99951.59;;;19.15;74.59
46448;BME280;32145;50.390;30.778;2023-07-08T08:43:01;99957.91;;;19.16;74.35
46448;BME280;32145;50.390;30.778;2023-07-08T08:46:00;99959.81;;;19.15;74.74
46448;BME280;32145;50.390;30.778;2023-07-08T08:49:04;99967.50;;;19.18;74.76
46448;BME280;32145;50.390;30.778;2023-07-08T08:52:01;99975.75;;;19.18;74.40
46448;BME280;32145;50.390;30.778;2023-07-08T08:54:56;99968.06;;;19.15;74.68
46448;BME280;32145;50.390;30.778;2023-07-08T08:58:01;99988.38;;;19.19;74.65
46448;BME280;32145;50.390;30.778;2023-07-08T09:00:59;99981.78;;;19.21;74.71
46448;BME280;32145;50.390;30.778;2023-07-08T09:03:57;99991.38;;;19.23;74.45
46448;BME280;32145;50.390;30.778;2023-07-08T09:07:00;99990.81;;;19.21;74.56
46448;BME280;32145;50.390;30.778;2023-07-08T09:10:02;99980.94;;;19.20;74.41
46448;BME280;32145;50.390;30.778;2023-07-08T09:12:59;99989.97;;;19.26;74.33
46448;BME280;32145;50.390;30.778;2023-07-08T09:16:05;99985.63;;;19.19;74.26
46448;BME280;32145;50.390;30.778;2023-07-08T09:19:03;99986.22;;;19.16;74.47
46448;BME280;32145;50.390;30.778;2023-07-08T09:22:03;99987.03;;;19.17;74.59
46448;BME280;32145;50.390;30.778;2023-07-08T09:25:02;99987.31;;;19.15;74.75
46448;BME280;32145;50.390;30.778;2023-07-08T09:27:57;99984.31;;;19.12;74.58
46448;BME280;32145;50.390;30.778;2023-07-08T09:30:53;99981.28;;;19.13;74.42
46448;BME280;32145;50.390;30.778;2023-07-08T09:33:47;99975.81;;;19.08;74.77
46448;BME280;32145;50.390;30.778;2023-07-08T09:36:45;99975.31;;;19.06;75.02
46448;BME280;32145;50.390;30.778;2023-07-08T09:39:40;99975.34;;;19.01;74.76
46448;BME280;32145;50.390;30.778;2023-07-08T09:42:34;99981.69;;;18.96;75.25
46448;BME280;32145;50.390;30.778;2023-07-08T09:45:40;99981.41;;;18.98;76.04
46448;BME280;32145;50.390;30.778;2023-07-08T09:48:37;99989.09;;;18.96;75.70
46448;BME280;32145;50.390;30.778;2023-07-08T09:51:31;99978.38;;;18.94;75.81
46448;BME280;32145;50.390;30.778;2023-07-08T09:54:26;99988.00;;;18.97;76.11
46448;BME280;32145;50.390;30.778;2023-07-08T09:57:26;99988.53;;;18.99;76.39
46448;BME280;32145;50.390;30.778;2023-07-08T10:00:27;99981.13;;;18.99;76.36
46448;BME280;32145;50.390;30.778;2023-07-08T10:03:25;99985.53;;;18.95;76.20
46448;BME280;32145;50.390;30.778;2023-07-08T10:06:23;99991.84;;;18.96;76.21
46448;BME280;32145;50.390;30.778;2023-07-08T10:09:20;99987.16;;;18.96;76.32
46448;BME280;32145;50.390;30.778;2023-07-08T10:12:18;99991.59;;;18.92;76.16
46448;BME280;32145;50.390;30.778;2023-07-08T10:15:17;99994.06;;;18.93;76.27
46448;BME280;32145;50.390;30.778;2023-07-08T10:18:15;99998.16;;;18.96;76.33
46448;BME280;32145;50.390;30.778;2023-07-08T10:21:20;100001.13;;;19.00;76.40
46448;BME280;32145;50.390;30.778;2023-07-08T10:24:29;100004.50;;;18.97;76.31
46448;BME280;32145;50.390;30.778;2023-07-08T10:27:34;99999.00;;;18.97;76.43
46448;BME280;32145;50.390;30.778;2023-07-08T10:30:34;99999.50;;;18.99;76.51
46448;BME280;32145;50.390;30.778;2023-07-08T10:33:47;100006.94;;;18.98;76.73
46448;BME280;32145;50.390;30.778;2023-07-08T10:36:50;100002.03;;;18.95;76.53
46448;BME280;32145;50.390;30.778;2023-07-08T10:40:01;100005.06;;;18.93;76.60
46448;BME280;32145;50.390;30.778;2023-07-08T10:43:24;100000.91;;;18.96;77.02
46448;BME280;32145;50.390;30.778;2023-07-08T10:46:30;100009.44;;;18.94;76.75
46448;BME280;32145;50.390;30.778;2023-07-08T10:49:39;100007.25;;;18.91;76.60
46448;BME280;32145;50.390;30.778;2023-07-08T10:52:47;100001.47;;;18.93;76.95
46448;BME280;32145;50.390;30.778;2023-07-08T10:55:51;100005.06;;;18.93;77.19
46448;BME280;32145;50.390;30.778;2023-07-08T10:59:26;100005.28;;;18.97;77.37
46448;BME280;32145;50.390;30.778;2023-07-08T11:02:58;100000.06;;;18.96;77.24
46448;BME280;32145;50.390;30.778;2023-07-08T11:05:59;99994.06;;;18.93;77.04
46448;BME280;32145;50.390;30.778;2023-07-08T11:09:00;99987.75;;;18.93;77.13
46448;BME280;32145;50.390;30.778;2023-07-08T11:12:02;99992.66;;;18.96;76.97
46448;BME280;32145;50.390;30.778;2023-07-08T11:15:05;99986.63;;;18.94;77.14
46448;BME280;32145;50.390;30.778;2023-07-08T11:18:09;99988.31;;;18.90;77.29
46448;BME280;32145;50.390;30.778;2023-07-08T11:21:11;99983.88;;;18.94;77.47
46448;BME280;32145;50.390;30.778;2023-07-08T11:24:13;99978.06;;;19.01;77.29
46448;BME280;32145;50.390;30.778;2023-07-08T11:27:20;99979.13;;;19.05;77.48
46448;BME280;32145;50.390;30.778;2023-07-08T11:30:21;99979.69;;;19.07;77.45
46448;BME280;32145;50.390;30.778;2023-07-08T11:33:21;99981.03;;;19.10;77.30
46448;BME280;32145;50.390;30.778;2023-07-08T11:36:19;99981.03;;;19.10;77.16
46448;BME280;32145;50.390;30.778;2023-07-08T11:39:43;99980.72;;;19.16;77.75
46448;BME280;32145;50.390;30.778;2023-07-08T11:42:43;99975.16;;;19.22;77.52
46448;BME280;32145;50.390;30.778;2023-07-08T11:45:43;99981.19;;;19.24;77.38
46448;BME280;32145;50.390;30.778;2023-07-08T11:48:42;99980.59;;;19.27;77.23
46448;BME280;32145;50.390;30.778;2023-07-08T11:51:39;99980.03;;;19.30;77.36
46448;BME280;32145;50.390;30.778;2023-07-08T11:54:35;99980.53;;;19.37;77.21
46448;BME280;32145;50.390;30.778;2023-07-08T11:57:37;99983.19;;;19.42;77.31
46448;BME280;32145;50.390;30.778;2023-07-08T12:00:36;99979.94;;;19.40;77.13
46448;BME280;32145;50.390;30.778;2023-07-08T12:03:35;99987.06;;;19.41;76.89
46448;BME280;32145;50.390;30.778;2023-07-08T12:06:43;99982.34;;;19.47;77.38
46448;BME280;32145;50.390;30.778;2023-07-08T12:09:46;99982.06;;;19.49;77.36
46448;BME280;32145;50.390;30.778;2023-07-08T12:12:45;99982.06;;;19.49;77.22
46448;BME280;32145;50.390;30.778;2023-07-08T12:15:43;99974.91;;;19.48;76.92
46448;BME280;32145;50.390;30.778;2023-07-08T12:18:40;99973.25;;;19.47;76.83
46448;BME280;32145;50.390;30.778;2023-07-08T12:21:37;99983.69;;;19.50;76.95
46448;BME280;32145;50.390;30.778;2023-07-08T12:24:31;99983.91;;;19.53;77.13
46448;BME280;32145;50.390;30.778;2023-07-08T12:27:25;99982.22;;;19.57;77.23
46448;BME280;32145;50.390;30.778;2023-07-08T12:30:22;99983.59;;;19.60;76.98
46448;BME280;32145;50.390;30.778;2023-07-08T12:33:26;99985.72;;;19.63;77.20
46448;BME280;32145;50.390;30.778;2023-07-08T12:36:26;99988.47;;;19.63;77.02
46448;BME280;32145;50.390;30.778;2023-07-08T12:39:23;99984.28;;;19.71;76.96
46448;BME280;32145;50.390;30.778;2023-07-08T12:42:20;99987.91;;;19.66;76.79
46448;BME280;32145;50.390;30.778;2023-07-08T12:45:20;99992.34;;;19.62;76.43
46448;BME280;32145;50.390;30.778;2023-07-08T12:48:16;99986.63;;;19.58;76.23
46448;BME280;32145;50.390;30.778;2023-07-08T12:51:16;100003.13;;;19.58;76.41
46448;BME280;32145;50.390;30.778;2023-07-08T12:54:13;100000.38;;;19.58;76.38
46448;BME280;32145;50.390;30.778;2023-07-08T12:57:09;100007.78;;;19.58;76.49
46448;BME280;32145;50.390;30.778;2023-07-08T13:00:11;100000.88;;;19.61;76.26
46448;BME280;32145;50.390;30.778;2023-07-08T13:03:12;100003.91;;;19.59;76.11
46448;BME280;32145;50.390;30.778;2023-07-08T13:06:11;100008.63;;;19.58;75.82
46448;BME280;32145;50.390;30.778;2023-07-08T13:09:26;100005.59;;;19.60;75.50
46448;BME280;32145;50.390;30.778;2023-07-08T13:12:23;99999.59;;;19.53;75.66
46448;BME280;32145;50.390;30.778;2023-07-08T13:15:22;100001.81;;;19.51;75.71
46448;BME280;32145;50.390;30.778;2023-07-08T13:18:23;100004.03;;;19.49;75.57
46448;BME280;32145;50.390;30.778;2023-07-08T13:21:20;100007.88;;;19.48;75.58
46448;BME280;32145;50.390;30.778;2023-07-08T13:24:17;100002.16;;;19.44;75.49
46448;BME280;32145;50.390;30.778;2023-07-08T13:27:20;100011.28;;;19.39;75.47
46448;BME280;32145;50.390;30.778;2023-07-08T13:30:20;100005.31;;;19.32;75.65
46448;BME280;32145;50.390;30.778;2023-07-08T13:33:19;100012.47;;;19.28;75.57
46448;BME280;32145;50.390;30.778;2023-07-08T13:36:18;100016.38;;;19.22;75.51
46448;BME280;32145;50.390;30.778;2023-07-08T13:39:17;100013.69;;;19.16;75.53
46448;BME280;32145;50.390;30.778;2023-07-08T13:42:16;100015.91;;;19.14;75.70
46448;BME280;32145;50.390;30.778;2023-07-08T13:45:14;100020.28;;;19.15;75.85
46448;BME280;32145;50.390;30.778;2023-07-08T13:48:14;100019.19;;;19.16;75.71
46448;BME280;32145;50.390;30.778;2023-07-08T13:51:16;100014.50;;;19.17;75.71
46448;BME280;32145;50.390;30.778;2023-07-08T13:54:17;100018.59;;;19.19;75.80
46448;BME280;32145;50.390;30.778;2023-07-08T13:57:18;100011.47;;;19.18;75.67
46448;BME280;32145;50.390;30.778;2023-07-08T14:00:15;100012.56;;;19.17;75.41
46448;BME280;32145;50.390;30.778;2023-07-08T14:03:12;100016.13;;;19.18;75.85
46448;BME280;32145;50.390;30.778;2023-07-08T14:06:13;100008.72;;;19.18;75.96
46448;BME280;32145;50.390;30.778;2023-07-08T14:09:12;100007.88;;;19.18;75.85
46448;BME280;32145;50.390;30.778;2023-07-08T14:12:09;100005.97;;;19.18;75.94
46448;BME280;32145;50.390;30.778;2023-07-08T14:15:08;100007.84;;;19.23;75.99
46448;BME280;32145;50.390;30.778;2023-07-08T14:18:04;100001.53;;;19.23;76.12
46448;BME280;32145;50.390;30.778;2023-07-08T14:21:01;99999.34;;;19.25;76.20
46448;BME280;32145;50.390;30.778;2023-07-08T14:23:57;99993.00;;;19.24;76.33
46448;BME280;32145;50.390;30.778;2023-07-08T14:26:54;99989.44;;;19.24;76.56
46448;BME280;32145;50.390;30.778;2023-07-08T14:29:51;99981.72;;;19.26;76.63
46448;BME280;32145;50.390;30.778;2023-07-08T14:32:49;99990.47;;;19.28;76.78
46448;BME280;32145;50.390;30.778;2023-07-08T14:35:45;99983.06;;;19.28;76.70
46448;BME280;32145;50.390;30.778;2023-07-08T14:38:41;99981.94;;;19.29;76.90
46448;BME280;32145;50.390;30.778;2023-07-08T14:41:38;99973.38;;;19.36;76.73
46448;BME280;32145;50.390;30.778;2023-07-08T14:44:36;99982.38;;;19.42;76.82
46448;BME280;32145;50.390;30.778;2023-07-08T14:47:32;99981.00;;;19.44;76.64
46448;BME280;32145;50.390;30.778;2023-07-08T14:50:29;99981.00;;;19.44;76.27
46448;BME280;32145;50.390;30.778;2023-07-08T14:53:26;99979.63;;;19.42;76.14
46448;BME280;32145;50.390;30.778;2023-07-08T14:56:22;99978.00;;;19.41;76.31
46448;BME280;32145;50.390;30.778;2023-07-08T14:59:21;99979.69;;;19.37;76.25
46448;BME280;32145;50.390;30.778;2023-07-08T15:02:20;99981.09;;;19.34;75.95
46448;BME280;32145;50.390;30.778;2023-07-08T15:05:19;99978.34;;;19.34;75.98
46448;BME280;32145;50.390;30.778;2023-07-08T15:08:17;99975.59;;;19.34;76.01
46448;BME280;32145;50.390;30.778;2023-07-08T15:11:14;99974.75;;;19.34;75.81
46448;BME280;32145;50.390;30.778;2023-07-08T15:14:17;99983.78;;;19.39;75.59
46448;BME280;32145;50.390;30.778;2023-07-08T15:17:15;99986.25;;;19.41;75.20
46448;BME280;32145;50.390;30.778;2023-07-08T15:20:13;99983.19;;;19.42;75.07
46448;BME280;32145;50.390;30.778;2023-07-08T15:23:10;99977.66;;;19.48;75.02
46448;BME280;32145;50.390;30.778;2023-07-08T15:26:10;99975.94;;;19.52;74.51